Time;durP1;ratioP1;P1;durP2;ratioP2;P2;SDS_P1;SDS_P2;PMS_P1;PMS_P2;Temp;Humidity;BMP_temperature;BMP_pressure;BME280_temperature;BME280_humidity;BME280_pressure;Samples;Min_cycle;Max_cycle;Signal;HPM_P1;HPM_P2
2021/08/03 00:01:52;;;;;;;2.53;1.90;;;19.40;99.90;;;;;;4992284;28;20204;-81
2021/08/03 00:04:21;;;;;;;1.65;1.52;;;19.30;99.90;;;;;;4994402;28;20280;-80
2021/08/03 00:06:51;;;;;;;2.03;1.88;;;19.30;99.90;;;;;;4992550;28;20677;-80
2021/08/03 00:09:18;;;;;;;5.05;2.50;;;19.30;99.90;;;;;;4993631;28;20652;-80
2021/08/03 00:11:48;;;;;;;1.77;1.63;;;19.30;99.90;;;;;;4993354;28;20233;-79
2021/08/03 00:14:15;;;;;;;1.98;1.77;;;19.30;99.90;;;;;;4993911;28;20201;-79
2021/08/03 00:16:44;;;;;;;2.15;1.95;;;19.30;99.90;;;;;;4992924;28;20197;-79
2021/08/03 00:19:11;;;;;;;1.95;1.80;;;19.30;99.90;;;;;;4992745;28;20240;-81
2021/08/03 00:21:38;;;;;;;2.72;2.20;;;19.20;99.90;;;;;;4993605;28;20511;-82
2021/08/03 00:24:06;;;;;;;2.20;2.00;;;19.10;99.90;;;;;;4993967;28;20205;-83
2021/08/03 00:26:33;;;;;;;2.55;2.08;;;19.20;99.90;;;;;;4986176;28;20240;-78
2021/08/03 00:29:01;;;;;;;2.53;2.00;;;19.20;99.90;;;;;;4993027;28;20243;-78
2021/08/03 00:31:28;;;;;;;2.40;2.20;;;19.20;99.90;;;;;;4993114;28;20221;-78
2021/08/03 00:33:57;;;;;;;2.17;1.95;;;19.20;99.90;;;;;;4993562;28;20201;-78
2021/08/03 00:36:26;;;;;;;2.40;2.20;;;19.10;99.90;;;;;;4994123;28;20194;-78
2021/08/03 00:38:54;;;;;;;2.17;1.98;;;19.00;99.90;;;;;;4999791;28;20201;-77
2021/08/03 00:41:24;;;;;;;2.88;1.83;;;19.00;99.90;;;;;;4993724;28;20588;-77
2021/08/03 00:43:51;;;;;;;2.67;1.67;;;19.00;99.90;;;;;;4990976;28;20288;-77
2021/08/03 00:46:19;;;;;;;2.40;1.92;;;19.00;99.90;;;;;;4994097;28;20636;-77
2021/08/03 00:48:46;;;;;;;2.50;2.30;;;18.90;99.90;;;;;;4994332;28;20212;-77
2021/08/03 00:51:13;;;;;;;2.13;1.73;;;18.90;99.90;;;;;;4994461;28;20217;-77
2021/08/03 00:53:43;;;;;;;2.20;1.90;;;18.90;99.90;;;;;;4994267;28;20232;-78
2021/08/03 00:56:10;;;;;;;3.28;2.00;;;18.50;99.90;;;;;;4993640;28;20221;-78
2021/08/03 00:58:38;;;;;;;3.05;2.00;;;18.90;99.90;;;;;;4993430;28;20589;-78
2021/08/03 01:01:05;;;;;;;2.42;2.17;;;18.90;99.90;;;;;;4993646;28;20198;-76
2021/08/03 01:03:34;;;;;;;2.58;2.15;;;18.90;99.90;;;;;;4993739;28;20197;-77
2021/08/03 01:06:06;;;;;;;3.13;2.08;;;18.90;99.90;;;;;;4993129;28;20260;-77
2021/08/03 01:08:42;;;;;;;2.35;2.10;;;18.90;99.90;;;;;;4991780;28;20190;-78
2021/08/03 01:11:12;;;;;;;3.00;2.33;;;18.80;99.90;;;;;;4992488;28;20189;-78
2021/08/03 01:13:46;;;;;;;2.67;2.10;;;18.80;99.90;;;;;;4991733;28;20192;-78
2021/08/03 01:16:23;;;;;;;1.67;1.58;;;18.80;99.90;;;;;;4992729;28;20189;-78
2021/08/03 01:18:59;;;;;;;2.30;2.10;;;18.80;99.90;;;;;;4992248;28;20228;-77
2021/08/03 01:21:45;;;;;;;1.90;1.80;;;18.80;99.90;;;;;;4992825;28;20189;-78
2021/08/03 01:24:31;;;;;;;1.98;1.77;;;18.80;99.90;;;;;;4991868;28;20201;-78
2021/08/03 01:27:17;;;;;;;2.60;1.90;;;18.70;99.90;;;;;;4992363;28;20205;-77
2021/08/03 01:29:47;;;;;;;2.30;2.10;;;18.70;99.90;;;;;;4987172;28;20263;-78
2021/08/03 01:32:17;;;;;;;4.10;1.92;;;18.70;99.90;;;;;;4992377;28;20622;-78
2021/08/03 01:34:47;;;;;;;5.20;1.92;;;18.70;99.90;;;;;;4992946;28;20201;-80
2021/08/03 01:37:17;;;;;;;2.20;1.77;;;18.70;99.90;;;;;;4993733;28;20599;-79
2021/08/03 01:39:48;;;;;;;2.90;2.20;;;18.70;99.90;;;;;;4992249;28;20220;-78
2021/08/03 01:42:17;;;;;;;2.88;2.05;;;18.70;99.90;;;;;;4993306;28;20194;-78
2021/08/03 01:44:46;;;;;;;2.50;2.20;;;18.70;99.90;;;;;;4984894;28;20197;-78
2021/08/03 01:47:15;;;;;;;5.60;1.88;;;18.60;99.90;;;;;;4993453;28;20193;-79
2021/08/03 01:49:42;;;;;;;3.20;2.20;;;18.60;99.90;;;;;;4993127;28;20259;-79
2021/08/03 01:52:10;;;;;;;1.98;1.73;;;18.60;99.90;;;;;;4993814;28;20217;-78
2021/08/03 01:54:38;;;;;;;2.42;2.22;;;18.50;99.90;;;;;;4991022;28;20233;-79
2021/08/03 01:57:06;;;;;;;3.72;2.13;;;18.50;99.90;;;;;;4992837;28;20197;-78
2021/08/03 01:59:33;;;;;;;1.95;1.67;;;18.50;99.90;;;;;;4992902;28;20197;-79
2021/08/03 02:02:03;;;;;;;2.20;2.00;;;18.60;99.90;;;;;;4989711;28;20193;-79
2021/08/03 02:04:31;;;;;;;2.00;1.80;;;18.60;99.90;;;;;;4991666;28;20642;-81
2021/08/03 02:06:58;;;;;;;2.22;1.90;;;18.50;99.90;;;;;;4992141;28;20201;-82
2021/08/03 02:09:26;;;;;;;4.03;1.75;;;18.50;99.90;;;;;;4992032;28;20259;-82
2021/08/03 02:11:53;;;;;;;2.33;2.00;;;18.50;99.90;;;;;;4991550;28;20276;-80
2021/08/03 02:14:22;;;;;;;3.78;2.85;;;18.50;99.90;;;;;;4992076;28;20201;-79
2021/08/03 02:16:49;;;;;;;2.22;2.03;;;18.50;99.90;;;;;;4991444;28;20236;-79
2021/08/03 02:19:17;;;;;;;1.80;1.70;;;18.50;99.90;;;;;;4992160;28;20190;-79
2021/08/03 02:21:45;;;;;;;2.60;2.40;;;18.50;99.90;;;;;;4991712;28;20664;-79
2021/08/03 02:24:13;;;;;;;1.70;1.50;;;18.50;99.90;;;;;;4992108;28;20565;-79
2021/08/03 02:26:40;;;;;;;2.67;1.88;;;18.40;99.90;;;;;;4991957;28;20208;-79
2021/08/03 02:29:07;;;;;;;3.55;2.10;;;18.40;99.90;;;;;;4989806;28;20197;-79
2021/08/03 02:31:40;;;;;;;2.28;2.08;;;18.40;99.90;;;;;;4992215;28;20206;-79
2021/08/03 02:34:10;;;;;;;2.30;2.10;;;18.40;99.90;;;;;;4984666;28;20189;-78
2021/08/03 02:36:43;;;;;;;3.65;2.63;;;18.30;99.90;;;;;;4990796;28;20210;-79
2021/08/03 02:39:11;;;;;;;3.30;2.13;;;18.30;99.90;;;;;;4992077;28;20552;-79
2021/08/03 02:41:38;;;;;;;2.28;2.08;;;18.30;99.90;;;;;;4992903;28;20197;-80
2021/08/03 02:44:06;;;;;;;2.00;1.90;;;18.30;99.90;;;;;;4993008;28;20194;-80
2021/08/03 02:46:33;;;;;;;2.35;2.15;;;18.30;99.90;;;;;;4992855;28;20272;-79
2021/08/03 02:49:03;;;;;;;2.25;1.98;;;18.20;99.90;;;;;;4992895;28;20210;-80
2021/08/03 02:51:31;;;;;;;2.72;2.33;;;18.30;99.90;;;;;;4994476;28;20221;-77
2021/08/03 02:54:02;;;;;;;1.80;1.70;;;18.30;99.90;;;;;;4995622;28;20784;-78
2021/08/03 02:56:31;;;;;;;2.78;2.22;;;17.60;99.90;;;;;;4995578;28;20190;-79
2021/08/03 02:59:03;;;;;;;2.53;2.13;;;18.30;99.90;;;;;;4996454;28;20206;-79
2021/08/03 03:01:32;;;;;;;1.88;1.70;;;18.30;99.90;;;;;;4996455;28;20221;-79
2021/08/03 03:04:05;;;;;;;2.25;2.03;;;18.30;99.90;;;;;;4996331;28;20194;-80
2021/08/03 03:06:34;;;;;;;2.50;2.30;;;18.30;99.90;;;;;;4995973;28;20256;-80
2021/08/03 03:09:03;;;;;;;2.03;1.83;;;18.30;99.90;;;;;;4996665;28;20198;-80
2021/08/03 03:11:32;;;;;;;2.92;2.35;;;18.20;99.90;;;;;;4995578;28;20613;-80
2021/08/03 03:14:00;;;;;;;2.58;1.80;;;18.20;99.90;;;;;;4995655;28;20303;-80
2021/08/03 03:16:29;;;;;;;3.05;2.38;;;18.20;99.90;;;;;;4995307;28;20688;-81
2021/08/03 03:18:56;;;;;;;2.20;2.00;;;18.10;99.90;;;;;;4995475;28;20525;-79
2021/08/03 03:21:25;;;;;;;2.20;2.00;;;18.10;99.90;;;;;;4995880;28;20201;-80
2021/08/03 03:23:55;;;;;;;2.70;1.90;;;18.10;99.90;;;;;;4994286;28;20209;-79
2021/08/03 03:26:26;;;;;;;3.03;1.88;;;18.20;99.90;;;;;;4995776;28;20205;-79
2021/08/03 03:28:54;;;;;;;2.55;2.35;;;18.10;99.90;;;;;;4996206;28;20189;-79
2021/08/03 03:31:22;;;;;;;6.35;2.33;;;18.10;99.90;;;;;;4995430;28;20502;-80
2021/08/03 03:33:53;;;;;;;3.28;2.38;;;18.00;99.90;;;;;;4995080;28;20221;-83
2021/08/03 03:36:25;;;;;;;2.50;2.30;;;18.00;99.90;;;;;;4996046;28;20246;-82
2021/08/03 03:38:53;;;;;;;2.13;1.92;;;18.00;99.90;;;;;;4999082;28;20571;-82
2021/08/03 03:41:24;;;;;;;2.78;2.58;;;18.00;99.90;;;;;;4994898;28;20194;-81
2021/08/03 03:43:50;;;;;;;3.33;2.45;;;18.00;99.90;;;;;;4995855;28;20597;-80
2021/08/03 03:46:21;;;;;;;2.60;2.40;;;18.00;99.90;;;;;;4995435;28;20205;-81
2021/08/03 03:48:51;;;;;;;2.65;2.08;;;18.00;99.90;;;;;;4995259;28;20197;-80
2021/08/03 03:51:22;;;;;;;2.78;2.45;;;18.10;99.90;;;;;;4994040;28;20276;-78
2021/08/03 03:53:52;;;;;;;2.40;2.20;;;18.00;99.90;;;;;;4994801;28;20228;-78
2021/08/03 03:56:23;;;;;;;2.13;1.90;;;18.00;99.90;;;;;;4995263;28;20186;-79
2021/08/03 03:58:59;;;;;;;2.75;2.35;;;17.90;99.90;;;;;;4991044;28;20194;-79
2021/08/03 04:01:27;;;;;;;2.38;2.05;;;17.90;99.90;;;;;;4995587;28;20189;-78
2021/08/03 04:03:56;;;;;;;2.95;2.75;;;18.00;99.90;;;;;;4992499;28;20193;-78
2021/08/03 04:06:23;;;;;;;2.58;2.35;;;17.90;99.90;;;;;;4993811;28;20684;-79
2021/08/03 04:08:50;;;;;;;2.65;2.38;;;17.90;99.90;;;;;;4993889;28;20205;-79
2021/08/03 04:11:16;;;;;;;3.47;1.83;;;17.90;99.90;;;;;;4993856;28;20208;-78
2021/08/03 04:13:45;;;;;;;3.05;2.25;;;17.90;99.90;;;;;;4994086;28;20271;-78
2021/08/03 04:16:13;;;;;;;2.55;2.35;;;17.80;99.90;;;;;;4994352;28;20244;-78
2021/08/03 04:18:40;;;;;;;2.85;2.53;;;17.80;99.90;;;;;;4992554;28;20701;-78
2021/08/03 04:21:07;;;;;;;5.85;2.42;;;17.90;99.90;;;;;;4993306;28;20225;-79
2021/08/03 04:23:34;;;;;;;2.88;2.58;;;17.90;99.90;;;;;;4994321;28;20204;-78
2021/08/03 04:26:01;;;;;;;3.28;1.80;;;17.80;99.90;;;;;;4994393;28;20198;-78
2021/08/03 04:28:28;;;;;;;3.58;2.47;;;17.80;99.90;;;;;;4994789;28;20193;-79
2021/08/03 04:30:57;;;;;;;3.35;2.80;;;17.80;99.90;;;;;;4993552;28;20746;-78
2021/08/03 04:33:26;;;;;;;4.72;2.80;;;17.80;99.90;;;;;;4995048;28;20214;-78
2021/08/03 04:35:52;;;;;;;2.75;2.47;;;17.80;99.90;;;;;;4994623;28;20256;-78
2021/08/03 04:38:19;;;;;;;2.38;2.08;;;17.80;99.90;;;;;;4995478;28;20248;-78
2021/08/03 04:40:46;;;;;;;2.55;2.35;;;17.80;99.90;;;;;;4997888;28;20263;-78
2021/08/03 04:43:12;;;;;;;2.15;1.95;;;17.80;99.90;;;;;;4994997;28;20198;-78
2021/08/03 04:45:39;;;;;;;2.63;2.05;;;17.80;99.90;;;;;;4993017;28;20202;-78
2021/08/03 04:48:06;;;;;;;3.90;2.47;;;17.80;99.90;;;;;;4993960;28;20205;-78
2021/08/03 04:50:34;;;;;;;4.93;2.88;;;17.70;99.90;;;;;;4994498;28;20276;-79
2021/08/03 04:53:01;;;;;;;4.13;2.50;;;17.70;99.90;;;;;;4993884;28;20229;-80
2021/08/03 04:55:27;;;;;;;2.88;2.13;;;17.70;99.90;;;;;;4993248;28;20193;-79
2021/08/03 04:57:54;;;;;;;3.17;2.45;;;17.70;99.90;;;;;;4994303;28;20252;-80
2021/08/03 05:00:21;;;;;;;3.15;2.45;;;17.70;99.90;;;;;;4994444;28;20205;-82
2021/08/03 05:02:48;;;;;;;2.85;2.65;;;17.70;99.90;;;;;;4995366;28;20233;-80
2021/08/03 05:05:14;;;;;;;2.13;2.00;;;17.70;99.90;;;;;;4994074;28;20259;-81
2021/08/03 05:07:54;;;;;;;2.60;2.40;;;17.70;99.90;;;;;;4995041;28;20601;-78
2021/08/03 05:10:21;;;;;;;2.70;2.05;;;17.70;99.90;;;;;;4993305;28;20186;-80
2021/08/03 05:12:47;;;;;;;2.83;2.50;;;17.60;99.90;;;;;;4993650;28;20556;-80
2021/08/03 05:15:14;;;;;;;2.55;2.35;;;17.60;99.90;;;;;;4993819;28;20197;-80
2021/08/03 05:17:41;;;;;;;3.20;2.88;;;17.70;99.90;;;;;;4994022;28;20197;-80
2021/08/03 05:20:09;;;;;;;3.22;1.95;;;17.60;99.90;;;;;;4993191;28;20200;-80
2021/08/03 05:22:35;;;;;;;1.98;1.88;;;17.60;99.90;;;;;;4993672;28;20193;-80
2021/08/03 05:25:04;;;;;;;2.20;2.00;;;17.60;99.90;;;;;;4993965;28;20202;-79
2021/08/03 05:27:31;;;;;;;3.00;2.70;;;17.60;99.90;;;;;;4993618;28;20656;-80
2021/08/03 05:29:58;;;;;;;2.80;2.28;;;17.60;99.90;;;;;;4993495;28;20213;-78
2021/08/03 05:32:24;;;;;;;3.53;2.75;;;17.60;99.90;;;;;;4993207;28;20193;-79
2021/08/03 05:34:51;;;;;;;3.38;2.28;;;17.60;99.90;;;;;;4993780;28;20605;-78
2021/08/03 05:37:19;;;;;;;3.90;1.85;;;17.60;99.90;;;;;;4993445;28;20202;-78
2021/08/03 05:39:46;;;;;;;3.00;2.28;;;17.60;99.90;;;;;;4998993;28;20616;-78
2021/08/03 05:42:14;;;;;;;3.58;2.10;;;17.20;99.90;;;;;;4993011;28;20252;-79
2021/08/03 05:44:40;;;;;;;2.90;2.17;;;17.60;99.90;;;;;;4993649;28;20205;-79
2021/08/03 05:47:07;;;;;;;2.10;1.90;;;17.50;99.90;;;;;;4993577;28;20658;-79
2021/08/03 05:49:34;;;;;;;2.30;2.10;;;17.50;99.90;;;;;;4993097;28;20197;-79
2021/08/03 05:52:01;;;;;;;2.63;2.05;;;17.60;99.90;;;;;;4993420;28;20209;-79
2021/08/03 05:54:28;;;;;;;4.85;2.70;;;18.20;99.90;;;;;;4992595;28;20225;-80
2021/08/03 05:56:55;;;;;;;2.65;2.30;;;17.60;99.90;;;;;;4993584;28;20208;-80
2021/08/03 05:59:23;;;;;;;2.40;2.13;;;17.50;99.90;;;;;;4993204;28;20200;-80
2021/08/03 06:01:49;;;;;;;3.97;3.17;;;17.50;99.90;;;;;;4992373;28;20198;-80
2021/08/03 06:04:16;;;;;;;2.58;2.38;;;17.60;99.90;;;;;;4992769;28;20206;-81
2021/08/03 06:06:46;;;;;;;3.20;2.00;;;17.60;99.90;;;;;;4991124;28;20201;-81
2021/08/03 06:09:13;;;;;;;3.17;2.38;;;17.60;99.90;;;;;;4990536;28;20537;-80
2021/08/03 06:11:45;;;;;;;5.97;2.55;;;17.60;99.90;;;;;;4992203;28;20205;-80
2021/08/03 06:14:12;;;;;;;2.38;2.17;;;17.60;99.90;;;;;;4991663;28;20533;-80
2021/08/03 06:16:41;;;;;;;3.83;2.72;;;17.50;99.90;;;;;;4991246;28;20711;-80
2021/08/03 06:19:11;;;;;;;2.65;2.42;;;17.60;99.90;;;;;;4988878;28;20205;-85
2021/08/03 06:21:39;;;;;;;4.00;2.67;;;17.60;99.90;;;;;;4992611;28;20190;-91
2021/08/03 06:24:06;;;;;;;4.50;2.97;;;17.60;99.90;;;;;;4993143;28;20248;-92
2021/08/03 06:26:34;;;;;;;7.63;4.15;;;17.60;99.90;;;;;;4995191;28;20528;-86
2021/08/03 06:29:02;;;;;;;4.38;3.00;;;17.70;99.90;;;;;;4996664;28;20985;-80
2021/08/03 06:31:29;;;;;;;8.95;2.97;;;17.70;99.90;;;;;;4996135;28;20198;-81
2021/08/03 06:33:58;;;;;;;5.65;2.97;;;17.70;99.90;;;;;;4995550;28;20672;-81
2021/08/03 06:36:25;;;;;;;2.85;2.55;;;17.80;99.90;;;;;;4996103;28;20202;-79
2021/08/03 06:38:51;;;;;;;2.15;1.95;;;18.00;99.90;;;;;;5002828;28;20204;-84
2021/08/03 06:41:30;;;;;;;2.50;2.30;;;18.20;99.90;;;;;;4994958;28;20221;-83
2021/08/03 06:44:02;;;;;;;3.10;2.80;;;18.30;99.90;;;;;;4996109;28;20186;-82
2021/08/03 06:46:30;;;;;;;3.75;2.30;;;18.50;99.90;;;;;;4995180;28;20186;-80
2021/08/03 06:49:04;;;;;;;2.78;2.38;;;18.70;99.90;;;;;;4994777;28;20201;-82
2021/08/03 06:51:33;;;;;;;6.72;3.90;;;18.80;99.90;;;;;;4993619;28;20216;-80
2021/08/03 06:54:04;;;;;;;4.88;3.75;;;18.90;99.90;;;;;;4991635;28;20680;-80
2021/08/03 06:56:35;;;;;;;4.10;3.45;;;19.00;99.90;;;;;;4995527;28;20251;-80
2021/08/03 06:59:05;;;;;;;3.90;3.47;;;19.00;99.90;;;;;;4992212;28;20248;-80
2021/08/03 07:01:40;;;;;;;3.13;2.83;;;19.20;99.90;;;;;;4995267;28;20572;-79
2021/08/03 07:04:12;;;;;;;6.90;4.75;;;19.30;99.90;;;;;;4993918;28;20185;-77
2021/08/03 07:06:44;;;;;;;3.70;2.97;;;19.30;99.90;;;;;;4995443;28;20244;-77
2021/08/03 07:09:11;;;;;;;5.28;2.70;;;19.30;99.90;;;;;;4995497;28;20514;-78
2021/08/03 07:11:39;;;;;;;6.53;3.55;;;19.30;99.90;;;;;;4990369;28;20264;-77
2021/08/03 07:14:06;;;;;;;2.97;2.63;;;19.20;99.90;;;;;;4995361;28;20217;-77
2021/08/03 07:16:35;;;;;;;6.20;5.15;;;19.20;99.90;;;;;;4988263;28;20261;-78
2021/08/03 07:19:05;;;;;;;4.15;2.83;;;18.90;99.90;;;;;;5002249;28;20197;-80
2021/08/03 07:21:34;;;;;;;5.90;4.88;;;18.90;99.90;;;;;;4994366;28;20201;-81
2021/08/03 07:24:01;;;;;;;6.30;3.88;;;18.90;99.90;;;;;;4995545;28;20205;-76
2021/08/03 07:26:28;;;;;;;4.93;3.95;;;19.10;99.90;;;;;;4994629;28;20205;-78
2021/08/03 07:28:54;;;;;;;7.78;3.85;;;19.00;99.90;;;;;;4994823;28;20205;-79
2021/08/03 07:31:21;;;;;;;4.25;3.50;;;19.00;99.90;;;;;;4994596;28;20264;-79
2021/08/03 07:33:48;;;;;;;4.22;3.83;;;19.00;99.90;;;;;;4994471;28;20224;-81
2021/08/03 07:36:15;;;;;;;3.38;2.70;;;19.00;99.90;;;;;;4989317;28;20551;-77
2021/08/03 07:38:44;;;;;;;3.13;2.80;;;18.90;99.90;;;;;;4999338;28;20251;-79
2021/08/03 07:41:11;;;;;;;5.93;3.53;;;18.90;99.90;;;;;;4996906;28;20584;-79
2021/08/03 07:43:38;;;;;;;3.58;3.25;;;18.90;99.90;;;;;;4994459;28;20198;-79
2021/08/03 07:46:04;;;;;;;5.45;3.90;;;18.80;99.90;;;;;;4992374;28;20209;-79
2021/08/03 07:48:31;;;;;;;3.72;3.33;;;18.80;99.90;;;;;;4994938;28;20712;-80
2021/08/03 07:50:58;;;;;;;5.18;4.22;;;18.70;99.90;;;;;;4993730;28;20201;-80
2021/08/03 07:53:24;;;;;;;5.00;4.05;;;18.70;99.90;;;;;;4993304;28;20554;-79
2021/08/03 07:55:52;;;;;;;5.07;4.18;;;18.70;99.90;;;;;;4990464;28;20232;-81
2021/08/03 07:58:19;;;;;;;3.72;2.72;;;18.70;99.90;;;;;;4995470;28;20552;-79
2021/08/03 08:00:46;;;;;;;3.58;3.28;;;18.70;99.90;;;;;;4995086;28;20337;-79
2021/08/03 08:03:12;;;;;;;6.57;4.97;;;18.70;99.90;;;;;;4994910;28;20633;-79
2021/08/03 08:05:39;;;;;;;4.88;4.43;;;18.70;99.90;;;;;;4994157;28;20201;-79
2021/08/03 08:08:07;;;;;;;3.70;2.97;;;18.70;99.90;;;;;;4988421;28;20205;-79
2021/08/03 08:10:34;;;;;;;4.45;3.30;;;18.70;99.90;;;;;;4991339;28;20205;-80
2021/08/03 08:13:02;;;;;;;4.00;3.15;;;18.70;99.90;;;;;;4994103;28;20251;-80
2021/08/03 08:15:28;;;;;;;4.22;3.83;;;18.70;99.90;;;;;;4994094;28;20219;-79
2021/08/03 08:17:55;;;;;;;4.15;3.30;;;18.70;99.90;;;;;;4993227;28;20256;-80
2021/08/03 08:20:22;;;;;;;4.70;3.85;;;18.70;99.90;;;;;;4993683;28;20225;-80
2021/08/03 08:22:49;;;;;;;6.22;3.97;;;18.70;99.90;;;;;;4994100;28;20197;-79
2021/08/03 08:25:15;;;;;;;3.50;3.17;;;18.70;99.90;;;;;;4993430;28;20208;-80
2021/08/03 08:27:42;;;;;;;8.35;4.30;;;18.70;99.90;;;;;;4992637;28;20193;-80
2021/08/03 08:30:11;;;;;;;3.05;2.55;;;18.70;99.90;;;;;;4988392;28;20715;-78
2021/08/03 08:32:40;;;;;;;3.92;3.50;;;18.70;99.90;;;;;;4988424;28;20212;-80
2021/08/03 08:35:07;;;;;;;3.95;3.50;;;18.70;99.90;;;;;;4993722;28;20213;-79
2021/08/03 08:37:34;;;;;;;5.40;4.25;;;18.70;99.90;;;;;;4993214;28;20213;-80
2021/08/03 08:40:01;;;;;;;5.07;4.20;;;18.80;99.90;;;;;;4997449;28;20526;-79
2021/08/03 08:42:28;;;;;;;3.60;3.30;;;18.70;99.90;;;;;;4993040;28;20649;-80
2021/08/03 08:44:55;;;;;;;3.80;3.20;;;18.70;99.90;;;;;;4993147;28;20197;-80
2021/08/03 08:47:24;;;;;;;3.63;2.90;;;18.70;99.90;;;;;;4989798;28;20229;-79
2021/08/03 08:49:51;;;;;;;3.13;2.88;;;18.70;99.90;;;;;;4991301;28;20353;-81
2021/08/03 08:52:18;;;;;;;6.68;3.40;;;18.70;99.90;;;;;;4992390;28;20217;-86
2021/08/03 08:54:44;;;;;;;4.53;3.30;;;18.70;99.90;;;;;;4991066;28;20233;-78
2021/08/03 08:57:11;;;;;;;3.25;2.58;;;18.80;99.90;;;;;;4992535;28;20194;-81
2021/08/03 08:59:38;;;;;;;3.30;2.80;;;18.80;99.90;;;;;;4991055;28;20213;-81
2021/08/03 09:02:05;;;;;;;4.65;2.95;;;18.80;99.90;;;;;;4989536;28;20206;-82
2021/08/03 09:04:33;;;;;;;3.40;3.08;;;18.80;99.90;;;;;;4994908;28;20202;-81
2021/08/03 09:07:06;;;;;;;7.70;3.78;;;18.80;99.90;;;;;;4992802;28;20205;-82
2021/08/03 09:09:40;;;;;;;3.92;2.95;;;18.70;99.90;;;;;;4993622;28;20289;-91
2021/08/03 09:12:07;;;;;;;5.47;2.85;;;18.80;99.90;;;;;;4991619;28;20280;-90
2021/08/03 09:14:35;;;;;;;4.13;2.90;;;18.80;99.90;;;;;;4992724;28;20736;-80
2021/08/03 09:17:03;;;;;;;6.50;3.58;;;18.80;99.90;;;;;;4992749;28;20193;-83
2021/08/03 09:19:37;;;;;;;4.72;3.83;;;18.80;99.90;;;;;;4992089;28;20193;-80
2021/08/03 09:22:11;;;;;;;3.60;3.30;;;18.80;99.90;;;;;;4992336;28;20190;-81
2021/08/03 09:24:38;;;;;;;3.90;3.50;;;18.90;99.90;;;;;;4994087;28;20204;-78
2021/08/03 09:27:05;;;;;;;5.65;4.20;;;18.80;99.90;;;;;;4990022;28;20202;-80
2021/08/03 09:29:44;;;;;;;4.10;3.67;;;18.90;99.90;;;;;;4998741;28;20201;-85
2021/08/03 09:32:10;;;;;;;3.53;3.22;;;18.80;99.90;;;;;;4999970;28;20348;-83
2021/08/03 09:34:39;;;;;;;5.20;2.92;;;18.80;99.90;;;;;;4993318;28;20454;-91
2021/08/03 09:37:05;;;;;;;4.45;3.17;;;18.70;99.90;;;;;;4992556;28;20194;-84
2021/08/03 09:39:40;;;;;;;9.65;2.90;;;18.80;99.90;;;;;;4992461;28;20208;-78
2021/08/03 09:42:09;;;;;;;3.53;2.75;;;18.80;99.90;;;;;;4992239;28;20221;-78
2021/08/03 09:44:37;;;;;;;4.88;2.92;;;18.90;99.90;;;;;;4997279;28;20197;-82
2021/08/03 09:47:04;;;;;;;5.32;3.05;;;18.80;99.90;;;;;;4989426;28;20202;-85
2021/08/03 09:49:40;;;;;;;3.35;3.05;;;18.80;99.90;;;;;;4992731;28;20209;-78
2021/08/03 09:52:08;;;;;;;3.00;2.70;;;18.80;99.90;;;;;;4992080;28;20193;-79
2021/08/03 09:54:36;;;;;;;2.85;2.65;;;18.80;99.90;;;;;;4991750;28;20221;-79
2021/08/03 09:57:03;;;;;;;2.70;2.50;;;18.80;99.90;;;;;;4984149;28;20224;-77
2021/08/03 09:59:34;;;;;;;3.90;3.28;;;18.80;99.90;;;;;;4992474;28;20200;-87
2021/08/03 10:02:01;;;;;;;3.50;2.17;;;18.80;99.90;;;;;;4987380;28;20225;-79
2021/08/03 10:04:31;;;;;;;6.35;2.50;;;18.80;99.90;;;;;;4990503;28;20216;-81
2021/08/03 10:06:59;;;;;;;4.22;3.33;;;18.80;99.90;;;;;;4991355;28;20201;-85
2021/08/03 10:09:26;;;;;;;7.82;4.30;;;18.60;99.90;;;;;;4991300;28;20193;-78
2021/08/03 10:11:54;;;;;;;2.85;2.58;;;18.80;99.90;;;;;;4991996;28;20212;-82
2021/08/03 10:14:21;;;;;;;2.45;2.20;;;18.80;99.90;;;;;;4985226;28;20336;-81
2021/08/03 10:16:48;;;;;;;3.03;2.38;;;18.90;99.90;;;;;;4991925;28;20234;-76
2021/08/03 10:19:20;;;;;;;3.45;3.15;;;19.00;99.90;;;;;;4992284;28;20204;-81
2021/08/03 10:21:56;;;;;;;3.45;2.60;;;19.00;99.90;;;;;;4991726;28;20202;-79
2021/08/03 10:24:26;;;;;;;4.95;2.83;;;19.00;99.90;;;;;;4992698;28;20200;-82
2021/08/03 10:27:07;;;;;;;3.47;3.05;;;19.00;99.90;;;;;;4992308;28;20197;-78
2021/08/03 10:29:37;;;;;;;3.30;2.65;;;19.10;99.90;;;;;;4991991;28;20273;-77
2021/08/03 10:32:04;;;;;;;2.78;2.50;;;19.20;99.90;;;;;;4989522;28;20256;-81
2021/08/03 10:35:00;;;;;;;3.00;2.63;;;19.30;99.90;;;;;;4992813;28;20229;-79
2021/08/03 10:37:47;;;;;;;2.58;2.38;;;19.40;99.90;;;;;;4985651;28;20202;-83
2021/08/03 10:40:15;;;;;;;2.30;2.00;;;19.50;99.90;;;;;;4999260;28;20629;-80
2021/08/03 10:43:13;;;;;;;2.60;2.20;;;19.10;99.90;;;;;;4993409;28;20200;-78
2021/08/03 10:45:40;;;;;;;2.20;2.05;;;19.60;99.90;;;;;;4993037;28;20628;-82
2021/08/03 10:48:07;;;;;;;2.60;2.15;;;19.40;99.90;;;;;;4993444;28;20205;-78
2021/08/03 10:50:34;;;;;;;2.50;2.30;;;19.60;99.90;;;;;;4992558;28;20194;-83
2021/08/03 10:53:03;;;;;;;2.40;2.15;;;19.50;99.90;;;;;;4991745;28;20233;-90
2021/08/03 10:55:41;;;;;;;3.13;2.25;;;19.50;99.90;;;;;;4993967;28;20592;-90
2021/08/03 10:58:28;;;;;;;3.10;1.90;;;19.50;99.90;;;;;;4993322;28;20201;-83
2021/08/03 11:00:56;;;;;;;2.50;2.30;;;19.80;99.90;;;;;;4993112;28;20284;-81
2021/08/03 11:03:43;;;;;;;2.42;2.22;;;19.60;99.90;;;;;;4993135;28;20194;-93
2021/08/03 11:06:36;;;;;;;2.95;2.60;;;19.60;99.90;;;;;;4993196;28;20189;-85
2021/08/03 11:09:34;;;;;;;2.45;2.25;;;19.60;99.90;;;;;;4993153;28;20197;-79
2021/08/03 11:12:38;;;;;;;4.38;2.90;;;19.60;99.90;;;;;;4992933;28;20300;-90
2021/08/03 11:15:39;;;;;;;2.13;1.92;;;19.70;99.90;;;;;;4989717;28;20217;-79
2021/08/03 11:18:09;;;;;;;4.07;2.10;;;19.60;99.90;;;;;;4989338;28;20205;-80
2021/08/03 11:21:13;;;;;;;2.55;2.08;;;19.70;99.90;;;;;;4996725;28;20205;-79
2021/08/03 11:24:09;;;;;;;1.90;1.80;;;19.90;99.90;;;;;;4987285;28;20213;-78
2021/08/03 11:26:40;;;;;;;2.03;1.38;;;19.80;99.90;;;;;;4994698;28;20198;-76
2021/08/03 11:29:10;;;;;;;4.93;2.20;;;19.90;99.90;;;;;;4994836;28;20202;-81
2021/08/03 11:31:55;;;;;;;3.15;2.22;;;20.00;99.90;;;;;;4995316;28;20560;-80
2021/08/03 11:34:33;;;;;;;2.17;1.98;;;20.00;99.90;;;;;;4993627;28;20193;-80
2021/08/03 11:37:12;;;;;;;3.67;2.10;;;20.00;99.90;;;;;;4994895;28;20600;-82
2021/08/03 11:39:41;;;;;;;3.03;1.85;;;20.00;99.90;;;;;;4998097;28;20201;-78
2021/08/03 11:42:10;;;;;;;2.65;1.65;;;20.00;99.90;;;;;;4994816;28;20652;-79
2021/08/03 11:44:38;;;;;;;3.45;1.95;;;19.90;99.90;;;;;;4985590;28;20625;-79
2021/08/03 11:47:06;;;;;;;1.90;1.70;;;20.00;99.90;;;;;;4993792;28;20256;-77
2021/08/03 11:49:54;;;;;;;2.08;1.88;;;20.00;99.90;;;;;;4993377;28;20263;-80
2021/08/03 11:52:23;;;;;;;2.55;1.90;;;20.00;99.90;;;;;;4987197;28;20194;-83
2021/08/03 11:54:52;;;;;;;2.83;1.40;;;20.00;99.90;;;;;;4994640;28;20244;-80
2021/08/03 11:57:39;;;;;;;3.05;2.03;;;20.00;99.90;;;;;;4996050;28;20224;-81
2021/08/03 12:00:16;;;;;;;2.15;1.90;;;20.00;99.90;;;;;;4993017;28;20201;-80
2021/08/03 12:02:43;;;;;;;2.80;2.55;;;20.00;99.90;;;;;;4994587;28;20193;-79
2021/08/03 12:05:16;;;;;;;4.35;2.40;;;20.00;99.90;;;;;;4995124;28;20630;-80
2021/08/03 12:07:52;;;;;;;4.43;2.40;;;20.00;99.90;;;;;;4995288;28;20213;-82
2021/08/03 12:10:22;;;;;;;2.65;2.10;;;20.00;99.90;;;;;;4992934;28;20197;-83
2021/08/03 12:12:50;;;;;;;2.67;2.47;;;20.00;99.90;;;;;;4995788;28;20264;-79
2021/08/03 12:15:19;;;;;;;10.02;2.75;;;20.00;99.90;;;;;;4994882;28;20305;-79
2021/08/03 12:17:47;;;;;;;2.78;1.77;;;20.00;99.90;;;;;;4995380;28;20202;-81
2021/08/03 12:20:29;;;;;;;5.03;2.08;;;20.00;99.90;;;;;;4995404;28;20209;-81
2021/08/03 12:23:09;;;;;;;2.17;1.75;;;20.00;99.90;;;;;;4995054;28;20193;-80
2021/08/03 12:25:41;;;;;;;2.67;1.73;;;20.00;99.90;;;;;;4995516;28;20422;-80
2021/08/03 12:28:09;;;;;;;2.10;1.90;;;20.00;99.90;;;;;;4995229;28;20248;-80
2021/08/03 12:30:37;;;;;;;1.83;1.58;;;20.10;99.90;;;;;;4995171;28;20209;-87
2021/08/03 12:33:05;;;;;;;2.38;1.85;;;20.00;99.90;;;;;;4995419;28;20580;-81
2021/08/03 12:35:39;;;;;;;2.42;2.00;;;20.00;99.90;;;;;;4995299;28;20232;-77
2021/08/03 12:38:17;;;;;;;2.22;2.03;;;20.10;99.90;;;;;;4995362;28;20198;-80
2021/08/03 12:40:45;;;;;;;1.90;1.70;;;20.00;99.90;;;;;;5001258;28;20288;-80
2021/08/03 12:43:14;;;;;;;2.20;1.90;;;20.10;99.90;;;;;;4985399;28;20206;-77
2021/08/03 12:45:42;;;;;;;2.20;1.48;;;20.10;99.90;;;;;;4994892;28;20205;-78
2021/08/03 12:48:11;;;;;;;1.67;1.58;;;20.10;99.90;;;;;;4993986;28;20194;-76
2021/08/03 12:50:50;;;;;;;2.13;1.95;;;20.10;99.90;;;;;;4992934;28;20203;-76
2021/08/03 12:53:25;;;;;;;3.35;2.20;;;20.10;99.90;;;;;;4993275;28;20224;-76
2021/08/03 12:55:53;;;;;;;1.95;1.80;;;20.10;99.90;;;;;;4994011;28;20695;-76
2021/08/03 12:58:37;;;;;;;3.55;2.25;;;20.10;99.90;;;;;;4994500;28;20637;-76
2021/08/03 13:01:11;;;;;;;2.38;1.75;;;20.00;99.90;;;;;;4993557;28;20189;-77
2021/08/03 13:03:38;;;;;;;2.50;2.28;;;20.00;99.90;;;;;;4993950;28;20198;-77